Time;durP1;ratioP1;P1;durP2;ratioP2;P2;SDS_P1;SDS_P2;PMS_P1;PMS_P2;Temp;Humidity;BMP_temperature;BMP_pressure;BME280_temperature;BME280_humidity;BME280_pressure;Samples;Min_cycle;Max_cycle;Signal;HPM_P1;HPM_P2
2023/09/09 00:01:32;;;;;;;6.40;5.80;;;23.90;71.80;;;;;;5133942;27;20026;-89
2023/09/09 00:03:58;;;;;;;7.68;5.93;;;23.90;71.90;;;;;;5133007;27;20024;-90
2023/09/09 00:06:24;;;;;;;6.50;5.78;;;23.80;72.00;;;;;;5115305;27;20026;-90
2023/09/09 00:08:50;;;;;;;8.20;6.05;;;23.90;72.00;;;;;;5118163;27;20640;-92
2023/09/09 00:11:15;;;;;;;7.28;6.50;;;23.90;72.00;;;;;;5114933;27;20019;-91
2023/09/09 00:13:41;;;;;;;7.60;6.22;;;23.90;72.10;;;;;;5133279;27;20509;-92
2023/09/09 00:16:07;;;;;;;6.22;5.63;;;23.90;72.10;;;;;;5131652;27;20023;-92
2023/09/09 00:18:33;;;;;;;6.68;5.63;;;23.90;72.10;;;;;;5114709;27;20047;-92
2023/09/09 00:20:58;;;;;;;7.90;6.25;;;23.80;72.10;;;;;;5110882;27;20022;-93
2023/09/09 00:23:24;;;;;;;8.30;6.20;;;23.80;72.00;;;;;;5134074;27;20480;-92
2023/09/09 00:25:50;;;;;;;5.93;5.22;;;23.90;72.00;;;;;;5112756;27;20092;-93
2023/09/09 00:28:16;;;;;;;8.50;5.53;;;23.90;72.00;;;;;;5127995;27;20030;-91
2023/09/09 00:30:42;;;;;;;8.15;5.80;;;23.80;72.00;;;;;;5112700;27;20106;-90
2023/09/09 00:33:08;;;;;;;6.95;5.50;;;23.80;72.00;;;;;;5132557;27;20069;-90
2023/09/09 00:35:37;;;;;;;8.73;6.07;;;23.80;72.10;;;;;;5130675;27;20011;-91
2023/09/09 00:38:03;;;;;;;5.80;5.15;;;23.70;72.40;;;;;;5114183;27;20469;-89
2023/09/09 00:40:28;;;;;;;7.63;5.78;;;23.60;72.60;;;;;;5111113;27;20012;-89
2023/09/09 00:42:54;;;;;;;7.25;6.55;;;23.60;72.70;;;;;;5101352;27;20550;-88
2023/09/09 00:45:19;;;;;;;7.03;6.30;;;23.60;72.70;;;;;;5130404;27;20544;-89
2023/09/09 00:47:45;;;;;;;7.13;6.43;;;23.50;73.50;;;;;;5132047;27;20166;-90
2023/09/09 00:50:13;;;;;;;7.07;6.38;;;23.50;73.00;;;;;;5128671;27;20561;-91
2023/09/09 00:52:40;;;;;;;7.60;6.00;;;23.50;73.10;;;;;;5109670;27;20043;-93
2023/09/09 00:55:11;;;;;;;7.07;6.38;;;23.50;73.20;;;;;;5131836;27;20019;-91
2023/09/09 00:57:36;;;;;;;7.47;6.43;;;23.50;73.20;;;;;;5114880;27;20446;-93
2023/09/09 01:00:09;;;;;;;7.25;6.20;;;23.50;73.20;;;;;;5125384;27;20106;-93
2023/09/09 01:02:41;;;;;;;7.07;6.38;;;23.40;73.30;;;;;;5132776;27;20069;-92
2023/09/09 01:05:08;;;;;;;6.50;5.82;;;23.40;73.30;;;;;;5126612;27;20055;-91
2023/09/09 01:07:47;;;;;;;6.90;6.15;;;23.40;73.20;;;;;;5130352;27;20071;-91
2023/09/09 01:10:14;;;;;;;6.55;5.40;;;23.40;73.30;;;;;;5107002;28;20023;-92
2023/09/09 01:12:42;;;;;;;7.35;6.00;;;23.40;73.40;;;;;;5128602;27;20019;-90
2023/09/09 01:15:08;;;;;;;7.53;5.88;;;23.40;73.50;;;;;;5114707;28;20053;-90
2023/09/09 01:17:35;;;;;;;7.10;6.32;;;23.30;73.60;;;;;;5132401;27;20023;-89
2023/09/09 01:20:11;;;;;;;9.35;6.70;;;23.30;73.80;;;;;;5124341;27;20015;-89
2023/09/09 01:22:37;;;;;;;6.78;6.13;;;23.20;73.90;;;;;;5107385;28;20029;-90
2023/09/09 01:25:06;;;;;;;9.35;6.43;;;23.20;74.00;;;;;;5129102;27;20031;-89
2023/09/09 01:27:33;;;;;;;9.05;6.25;;;23.20;74.00;;;;;;5113098;27;20065;-90
2023/09/09 01:29:59;;;;;;;8.05;6.22;;;23.30;73.90;;;;;;5131363;27;20023;-89
2023/09/09 01:32:25;;;;;;;7.22;6.25;;;23.20;74.00;;;;;;5108430;28;20051;-90
2023/09/09 01:34:51;;;;;;;6.82;6.00;;;23.20;74.10;;;;;;5107833;28;20033;-90
2023/09/09 01:37:17;;;;;;;7.65;6.57;;;23.20;74.10;;;;;;5112750;28;20023;-91
2023/09/09 01:39:43;;;;;;;6.78;6.18;;;23.20;74.20;;;;;;5132382;27;20461;-91
2023/09/09 01:42:08;;;;;;;6.93;6.22;;;23.10;74.30;;;;;;5114903;28;20027;-90
2023/09/09 01:44:34;;;;;;;7.40;6.38;;;23.10;74.30;;;;;;5113889;27;20557;-89
2023/09/09 01:46:59;;;;;;;6.78;6.03;;;23.10;74.30;;;;;;5130718;27;20027;-90
2023/09/09 01:49:25;;;;;;;8.50;7.20;;;23.10;74.30;;;;;;5113774;28;20023;-90
2023/09/09 01:51:50;;;;;;;8.45;6.80;;;23.10;74.30;;;;;;5129759;27;20019;-89
2023/09/09 01:54:16;;;;;;;9.63;8.10;;;23.10;74.30;;;;;;5117673;27;20019;-89
2023/09/09 01:56:42;;;;;;;7.03;6.32;;;23.00;74.40;;;;;;5133008;27;20034;-90
2023/09/09 01:59:08;;;;;;;6.60;6.00;;;23.00;74.50;;;;;;5117615;27;20019;-91
2023/09/09 02:01:33;;;;;;;7.70;6.20;;;23.00;74.50;;;;;;5139891;27;20421;-90
2023/09/09 02:03:59;;;;;;;8.27;7.18;;;23.00;74.40;;;;;;5133825;27;20142;-90
2023/09/09 02:06:27;;;;;;;6.38;5.78;;;23.00;74.40;;;;;;5132320;27;20036;-89
2023/09/09 02:08:52;;;;;;;7.72;6.70;;;23.00;74.40;;;;;;5127884;27;20011;-90
2023/09/09 02:11:19;;;;;;;9.35;6.20;;;23.00;74.30;;;;;;5114464;27;20496;-90
2023/09/09 02:13:44;;;;;;;7.70;6.80;;;23.00;74.40;;;;;;5115431;27;20464;-90
2023/09/09 02:16:10;;;;;;;8.57;7.30;;;23.00;74.40;;;;;;5116398;27;20058;-90
2023/09/09 02:18:39;;;;;;;7.25;6.50;;;23.00;74.70;;;;;;5133526;27;20031;-90
2023/09/09 02:21:06;;;;;;;6.70;6.00;;;22.90;74.70;;;;;;5114777;27;20108;-89
2023/09/09 02:23:32;;;;;;;7.28;6.57;;;22.90;74.80;;;;;;5127016;27;20027;-89
2023/09/09 02:25:58;;;;;;;7.30;6.50;;;22.90;74.90;;;;;;5114633;27;20031;-89
2023/09/09 02:28:24;;;;;;;7.65;6.95;;;22.90;75.00;;;;;;5116167;27;20023;-90
2023/09/09 02:30:50;;;;;;;8.20;7.20;;;22.80;75.20;;;;;;5132794;27;20022;-89
2023/09/09 02:33:15;;;;;;;8.77;7.45;;;22.80;75.20;;;;;;5124542;27;20060;-91
2023/09/09 02:35:44;;;;;;;9.85;7.13;;;22.80;75.30;;;;;;5135337;27;20537;-90
2023/09/09 02:38:10;;;;;;;8.13;6.70;;;22.70;75.50;;;;;;5139102;27;20043;-91
2023/09/09 02:40:36;;;;;;;7.57;6.60;;;22.70;75.60;;;;;;5129549;27;20055;-91
2023/09/09 02:43:02;;;;;;;7.63;6.28;;;22.60;75.80;;;;;;5128521;27;20020;-92
2023/09/09 02:45:28;;;;;;;7.70;6.90;;;22.50;76.00;;;;;;5114469;27;20035;-88
2023/09/09 02:47:54;;;;;;;7.50;6.72;;;22.50;76.20;;;;;;5132909;27;20019;-90
2023/09/09 02:50:19;;;;;;;8.45;6.97;;;22.50;76.50;;;;;;5131665;27;20035;-89
2023/09/09 02:52:48;;;;;;;7.63;6.82;;;22.40;76.50;;;;;;5127921;27;20259;-89
2023/09/09 02:55:13;;;;;;;6.85;6.15;;;22.40;76.80;;;;;;5133462;27;20043;-90
2023/09/09 02:57:39;;;;;;;7.57;6.82;;;22.30;76.80;;;;;;5129231;27;20093;-89
2023/09/09 03:00:07;;;;;;;7.88;7.07;;;22.30;76.80;;;;;;5114780;27;20075;-90
2023/09/09 03:02:33;;;;;;;9.00;8.10;;;22.40;76.70;;;;;;5113148;27;20054;-90
2023/09/09 03:04:58;;;;;;;8.30;7.03;;;22.40;76.60;;;;;;5133276;27;20064;-89
2023/09/09 03:07:24;;;;;;;8.00;6.57;;;22.30;76.50;;;;;;5139278;27;20023;-90
2023/09/09 03:09:49;;;;;;;8.40;7.43;;;22.30;76.70;;;;;;5133605;27;20023;-89
2023/09/09 03:12:20;;;;;;;10.45;8.10;;;22.30;76.70;;;;;;5109426;28;20106;-89
2023/09/09 03:14:47;;;;;;;10.60;7.20;;;22.20;76.70;;;;;;5114675;27;20019;-90
2023/09/09 03:17:13;;;;;;;8.77;7.10;;;22.20;76.70;;;;;;5114707;27;20389;-89
2023/09/09 03:19:38;;;;;;;7.82;6.95;;;22.20;76.60;;;;;;5134533;27;20160;-90
2023/09/09 03:22:04;;;;;;;7.90;7.10;;;22.20;76.50;;;;;;5126938;27;20024;-90
2023/09/09 03:24:30;;;;;;;8.48;7.43;;;22.20;76.70;;;;;;5111691;27;20043;-91
2023/09/09 03:26:55;;;;;;;8.18;6.60;;;22.10;76.90;;;;;;5115613;27;20033;-90
2023/09/09 03:29:21;;;;;;;8.75;7.85;;;22.20;77.00;;;;;;5115276;27;20125;-89
2023/09/09 03:31:47;;;;;;;8.90;7.20;;;22.10;76.90;;;;;;5132873;27;20026;-90
2023/09/09 03:34:12;;;;;;;7.88;7.07;;;22.10;76.80;;;;;;5133173;27;20015;-90
2023/09/09 03:36:38;;;;;;;9.25;7.97;;;22.10;76.80;;;;;;5133704;27;20135;-91
2023/09/09 03:39:04;;;;;;;10.32;8.27;;;22.10;76.90;;;;;;5129897;27;20019;-90
2023/09/09 03:41:30;;;;;;;9.05;7.97;;;22.10;77.70;;;;;;5130757;27;20027;-90
2023/09/09 03:43:56;;;;;;;9.50;8.50;;;22.00;77.30;;;;;;5133073;27;20461;-90
2023/09/09 03:46:21;;;;;;;8.90;8.00;;;21.90;77.50;;;;;;5131347;27;20671;-92
2023/09/09 03:48:47;;;;;;;10.43;8.73;;;21.90;77.90;;;;;;5109104;27;20496;-91
2023/09/09 03:51:12;;;;;;;8.80;7.90;;;21.80;78.10;;;;;;5131371;27;20031;-94
2023/09/09 03:53:38;;;;;;;10.30;8.98;;;21.80;78.40;;;;;;5115890;27;20031;-89
2023/09/09 03:56:04;;;;;;;10.07;8.25;;;21.80;78.40;;;;;;5113216;27;20023;-90
2023/09/09 03:58:30;;;;;;;9.82;8.50;;;21.90;78.30;;;;;;5143382;27;20046;-95
2023/09/09 04:01:10;;;;;;;9.88;8.25;;;21.90;78.20;;;;;;5140466;27;20019;-95
2023/09/09 04:03:37;;;;;;;11.63;10.40;;;21.90;78.20;;;;;;5134446;27;20015;-93
2023/09/09 04:06:05;;;;;;;9.60;8.60;;;21.90;78.00;;;;;;5129457;27;20023;-95
2023/09/09 04:08:31;;;;;;;20.17;16.88;;;21.80;78.00;;;;;;5145957;27;20106;-94
2023/09/09 04:11:02;;;;;;;15.20;13.52;;;21.80;78.10;;;;;;5133758;27;20027;-96
2023/09/09 04:13:28;;;;;;;12.10;10.45;;;21.80;78.40;;;;;;5134545;27;20036;-94
2023/09/09 04:15:57;;;;;;;12.20;10.90;;;21.80;78.30;;;;;;5135064;27;20366;-94
2023/09/09 04:18:23;;;;;;;12.25;9.90;;;21.80;78.50;;;;;;5125335;27;20040;-95
2023/09/09 04:20:49;;;;;;;9.82;8.73;;;21.80;78.40;;;;;;5122462;27;20033;-94
2023/09/09 04:23:16;;;;;;;11.77;10.38;;;21.80;78.50;;;;;;5128066;27;20086;-95
2023/09/09 04:25:43;;;;;;;11.52;10.30;;;21.70;78.50;;;;;;5118884;27;20035;-93
2023/09/09 04:28:11;;;;;;;12.50;11.20;;;21.70;78.70;;;;;;5134479;27;20068;-94
2023/09/09 04:30:38;;;;;;;12.48;10.63;;;21.70;78.90;;;;;;5114663;27;21926;-92
2023/09/09 04:33:11;;;;;;;12.65;11.30;;;21.70;79.10;;;;;;5136388;27;20027;-92
2023/09/09 04:35:38;;;;;;;12.90;11.52;;;21.70;79.10;;;;;;5115064;27;20480;-94
2023/09/09 04:38:03;;;;;;;12.57;11.15;;;21.70;79.10;;;;;;5134236;27;20102;-92
2023/09/09 04:40:29;;;;;;;12.23;10.57;;;21.70;79.20;;;;;;5133140;27;20269;-91
2023/09/09 04:42:55;;;;;;;11.10;10.00;;;21.60;79.30;;;;;;5128248;27;20064;-91
2023/09/09 04:45:21;;;;;;;15.13;12.48;;;21.60;79.30;;;;;;5140725;27;20022;-94
2023/09/09 04:47:46;;;;;;;15.63;13.25;;;21.50;79.40;;;;;;5119711;27;20633;-92
2023/09/09 04:50:13;;;;;;;19.80;16.67;;;21.50;79.60;;;;;;5114372;27;20019;-90
2023/09/09 04:52:38;;;;;;;17.15;15.35;;;21.50;80.00;;;;;;5111955;27;20457;-88
2023/09/09 04:55:04;;;;;;;15.95;14.25;;;21.40;80.30;;;;;;5132098;27;20035;-89
2023/09/09 04:57:30;;;;;;;16.60;13.95;;;21.30;80.60;;;;;;5109038;28;20016;-88
2023/09/09 04:59:55;;;;;;;18.48;16.38;;;21.40;80.70;;;;;;5113487;27;20686;-88
2023/09/09 05:02:21;;;;;;;22.42;17.60;;;21.40;80.60;;;;;;5107023;28;20024;-88
2023/09/09 05:04:47;;;;;;;16.95;15.15;;;21.40;80.60;;;;;;5130453;27;20054;-87
2023/09/09 05:07:12;;;;;;;20.38;17.20;;;21.40;80.60;;;;;;5132764;27;20461;-89
2023/09/09 05:09:38;;;;;;;20.60;17.38;;;21.40;80.70;;;;;;5134026;28;20023;-94
2023/09/09 05:12:04;;;;;;;16.90;14.38;;;21.40;80.70;;;;;;5134977;28;20027;-94
2023/09/09 05:14:30;;;;;;;15.85;14.25;;;21.30;80.60;;;;;;5128180;28;20027;-94
2023/09/09 05:16:55;;;;;;;16.45;13.30;;;21.30;80.60;;;;;;5136847;27;20019;-89
2023/09/09 05:19:22;;;;;;;16.63;13.77;;;21.30;80.60;;;;;;5132571;28;20504;-90
2023/09/09 05:21:48;;;;;;;14.68;12.70;;;21.30;80.50;;;;;;5112509;27;20620;-90
2023/09/09 05:24:14;;;;;;;16.63;14.82;;;21.30;80.50;;;;;;5113643;28;20027;-90
2023/09/09 05:26:46;;;;;;;14.32;12.48;;;21.30;80.50;;;;;;5117329;27;20027;-94
2023/09/09 05:29:12;;;;;;;17.80;14.75;;;21.30;80.70;;;;;;5141383;27;20023;-91
2023/09/09 05:31:37;;;;;;;17.75;15.85;;;21.30;80.70;;;;;;5109714;27;20023;-92
2023/09/09 05:34:03;;;;;;;19.33;17.05;;;21.20;80.80;;;;;;5130904;27;20016;-94
2023/09/09 05:36:28;;;;;;;22.15;19.27;;;21.30;80.80;;;;;;5136887;27;20104;-93
2023/09/09 05:38:59;;;;;;;29.33;24.33;;;21.30;81.00;;;;;;5119669;27;20054;-93
2023/09/09 05:41:27;;;;;;;28.20;23.15;;;21.30;81.10;;;;;;5118467;27;20614;-92
2023/09/09 05:43:53;;;;;;;32.00;26.00;;;21.30;81.20;;;;;;5111965;27;20130;-93
2023/09/09 05:46:18;;;;;;;43.05;31.95;;;21.40;81.30;;;;;;5144804;27;20495;-92
2023/09/09 05:48:45;;;;;;;44.50;33.30;;;21.40;81.40;;;;;;5135306;27;20136;-93
2023/09/09 05:51:10;;;;;;;43.47;33.67;;;21.50;81.50;;;;;;5135947;27;20022;-90
2023/09/09 05:53:36;;;;;;;43.83;32.00;;;22.00;81.40;;;;;;5131515;27;20027;-91
2023/09/09 05:56:02;;;;;;;45.28;35.42;;;22.50;80.70;;;;;;5116596;27;20007;-91
2023/09/09 05:58:27;;;;;;;47.35;36.70;;;23.20;78.70;;;;;;5113401;27;20412;-93
2023/09/09 06:00:55;;;;;;;51.03;39.47;;;23.60;77.30;;;;;;5114501;27;20016;-92
2023/09/09 06:03:20;;;;;;;47.47;35.90;;;24.10;76.10;;;;;;5134457;27;20034;-89
2023/09/09 06:05:47;;;;;;;50.97;38.35;;;24.50;74.90;;;;;;5120771;27;20183;-90
2023/09/09 06:08:12;;;;;;;46.28;34.95;;;25.10;73.70;;;;;;5132267;27;20020;-91
2023/09/09 06:10:38;;;;;;;52.13;38.35;;;25.50;72.70;;;;;;5136556;27;20016;-91
2023/09/09 06:13:04;;;;;;;49.03;37.15;;;25.90;71.80;;;;;;5108266;27;20509;-92
2023/09/09 06:15:30;;;;;;;52.30;39.25;;;26.30;70.70;;;;;;5109823;27;20019;-90
2023/09/09 06:17:57;;;;;;;52.38;39.72;;;26.70;69.70;;;;;;5128024;27;20396;-91
2023/09/09 06:20:23;;;;;;;53.35;40.42;;;27.10;68.70;;;;;;5114858;27;20637;-91
2023/09/09 06:22:51;;;;;;;56.08;43.05;;;27.40;67.90;;;;;;5142373;27;20011;-94
2023/09/09 06:25:18;;;;;;;47.53;37.03;;;27.50;67.20;;;;;;5133895;27;20063;-91
2023/09/09 06:27:44;;;;;;;51.08;39.42;;;27.60;66.90;;;;;;5113273;27;20022;-90
2023/09/09 06:30:10;;;;;;;49.45;39.42;;;27.70;66.60;;;;;;5116444;27;20058;-91
2023/09/09 06:32:36;;;;;;;39.58;32.15;;;27.90;66.10;;;;;;5123357;27;20023;-93
2023/09/09 06:35:02;;;;;;;30.50;26.42;;;27.30;66.10;;;;;;5137068;27;20064;-91
2023/09/09 06:37:28;;;;;;;30.02;22.30;;;26.40;67.40;;;;;;5114800;27;20019;-92
2023/09/09 06:39:54;;;;;;;31.38;19.08;;;25.60;69.10;;;;;;5108204;27;20122;-93
2023/09/09 06:42:20;;;;;;;106.68;21.08;;;25.00;70.60;;;;;;5143103;27;20026;-96
2023/09/09 06:44:46;;;;;;;62.83;20.40;;;24.50;71.90;;;;;;5115121;27;20084;-94
2023/09/09 06:47:12;;;;;;;27.63;21.27;;;24.00;72.80;;;;;;5141899;27;20030;-96
2023/09/09 06:49:38;;;;;;;65.03;21.05;;;23.70;73.80;;;;;;5117787;27;20165;-92
2023/09/09 06:52:05;;;;;;;162.40;24.92;;;23.40;74.70;;;;;;5147542;27;20064;-93
2023/09/09 06:54:31;;;;;;;86.90;22.42;;;23.10;75.40;;;;;;5141401;27;20019;-95
2023/09/09 06:56:56;;;;;;;44.22;20.33;;;22.80;76.20;;;;;;5112805;27;20462;-94
2023/09/09 06:59:22;;;;;;;30.13;20.58;;;22.50;76.80;;;;;;5135237;27;20034;-93
2023/09/09 07:01:47;;;;;;;24.92;20.83;;;22.40;77.50;;;;;;5109732;27;20445;-92
2023/09/09 07:04:13;;;;;;;29.30;15.60;;;22.30;77.90;;;;;;5113701;27;20019;-93
2023/09/09 07:06:41;;;;;;;38.15;17.63;;;22.30;78.30;;;;;;5111561;27;20485;-94
2023/09/09 07:09:07;;;;;;;54.60;18.65;;;22.30;78.60;;;;;;5134331;27;20027;-94
2023/09/09 07:11:33;;;;;;;41.15;19.23;;;22.30;78.90;;;;;;5140955;27;20497;-96
2023/09/09 07:13:59;;;;;;;29.90;17.45;;;22.20;79.40;;;;;;5133636;27;20024;-93
2023/09/09 07:16:24;;;;;;;41.58;19.08;;;22.30;79.80;;;;;;5115272;27;20027;-92
2023/09/09 07:18:50;;;;;;;53.42;22.05;;;22.30;80.00;;;;;;5130396;27;20505;-96
2023/09/09 07:21:15;;;;;;;42.72;23.27;;;22.30;80.00;;;;;;5137242;27;20102;-96
2023/09/09 07:23:41;;;;;;;65.28;21.30;;;22.40;80.10;;;;;;5133643;27;20386;-96
2023/09/09 07:26:07;;;;;;;49.83;26.05;;;22.50;80.30;;;;;;5113817;27;20552;-96
2023/09/09 07:28:32;;;;;;;29.10;22.05;;;22.50;80.80;;;;;;5142618;27;20094;-96
2023/09/09 07:31:05;;;;;;;32.80;24.92;;;22.60;81.00;;;;;;5138921;27;20091;-96
2023/09/09 07:33:31;;;;;;;42.92;28.00;;;22.60;81.20;;;;;;5108688;28;20030;-92
2023/09/09 07:35:59;;;;;;;59.67;26.73;;;22.70;81.20;;;;;;5134644;27;20117;-96
2023/09/09 07:38:25;;;;;;;36.88;25.20;;;22.80;81.30;;;;;;5145962;22;20045;-83
2023/09/09 07:41:01;;;;;;;34.90;26.48;;;22.80;81.30;;;;;;5038769;28;20041;-85
2023/09/09 07:43:27;;;;;;;42.85;27.25;;;23.00;81.50;;;;;;5026115;28;20060;-86
2023/09/09 07:45:53;;;;;;;28.92;23.55;;;23.10;81.30;;;;;;5013051;28;20066;-83
2023/09/09 07:48:19;;;;;;;27.45;23.00;;;23.30;81.00;;;;;;5021439;28;20022;-84
2023/09/09 07:50:55;;;;;;;35.78;28.85;;;23.50;80.40;;;;;;5026859;28;20017;-84
2023/09/09 07:53:21;;;;;;;31.60;26.48;;;23.70;80.20;;;;;;5024601;28;20058;-83
2023/09/09 07:55:48;;;;;;;34.00;27.88;;;23.90;79.60;;;;;;5030780;28;20087;-83
2023/09/09 07:58:14;;;;;;;28.40;23.65;;;24.00;79.40;;;;;;5025383;28;20053;-83
2023/09/09 08:00:41;;;;;;;28.13;22.88;;;24.10;79.30;;;;;;5028853;28;20040;-83
2023/09/09 08:03:07;;;;;;;32.08;27.05;;;24.10;79.00;;;;;;5026876;28;20026;-83
2023/09/09 08:05:33;;;;;;;29.38;24.55;;;24.20;79.00;;;;;;5024112;28;20063;-83
2023/09/09 08:07:59;;;;;;;30.17;25.00;;;24.30;78.90;;;;;;5026176;28;20100;-84
2023/09/09 08:10:24;;;;;;;36.47;29.48;;;24.40;78.70;;;;;;5019192;28;20111;-83
2023/09/09 08:12:50;;;;;;;31.10;25.77;;;24.40;78.40;;;;;;5021327;28;20030;-83
2023/09/09 08:15:16;;;;;;;32.85;27.30;;;24.50;78.50;;;;;;5016876;28;20025;-83
2023/09/09 08:17:41;;;;;;;31.30;25.42;;;24.50;78.40;;;;;;5019957;28;20093;-83
2023/09/09 08:20:07;;;;;;;30.90;24.80;;;24.60;78.30;;;;;;5020781;28;20093;-83
2023/09/09 08:22:36;;;;;;;29.10;25.15;;;24.60;78.20;;;;;;5021291;28;20029;-83
2023/09/09 08:25:02;;;;;;;31.98;25.83;;;24.60;78.20;;;;;;5022369;28;20021;-83
2023/09/09 08:27:28;;;;;;;30.13;24.83;;;24.70;78.20;;;;;;5017030;28;20441;-83
2023/09/09 08:29:55;;;;;;;29.80;25.75;;;24.80;78.10;;;;;;5017933;28;20037;-83
2023/09/09 08:32:21;;;;;;;29.73;24.27;;;24.80;78.00;;;;;;5018967;28;20026;-84
2023/09/09 08:34:46;;;;;;;34.95;28.92;;;24.80;78.10;;;;;;5017902;28;20030;-83
2023/09/09 08:37:12;;;;;;;35.17;27.48;;;24.80;78.20;;;;;;5007715;28;20054;-83
2023/09/09 08:39:38;;;;;;;35.60;28.73;;;24.80;78.30;;;;;;5011327;28;20541;-83
2023/09/09 08:42:27;;;;;;;32.70;26.05;;;24.80;78.20;;;;;;5013814;28;20036;-83
2023/09/09 08:44:59;;;;;;;33.67;26.48;;;24.80;78.30;;;;;;5009890;28;20060;-84
2023/09/09 08:47:26;;;;;;;30.58;25.05;;;24.80;78.40;;;;;;5008222;28;20071;-83
2023/09/09 08:49:54;;;;;;;32.80;26.83;;;24.90;78.40;;;;;;5007605;28;20375;-83
2023/09/09 08:52:25;;;;;;;31.73;24.92;;;24.90;78.40;;;;;;5011293;28;20026;-83
2023/09/09 08:54:52;;;;;;;34.60;27.33;;;25.00;78.40;;;;;;5013037;28;20471;-83
2023/09/09 08:57:17;;;;;;;40.33;32.75;;;25.00;78.10;;;;;;5010156;28;20156;-83
2023/09/09 08:59:46;;;;;;;39.20;32.53;;;25.10;78.30;;;;;;5011624;28;20250;-83
2023/09/09 09:02:12;;;;;;;38.25;30.90;;;25.10;78.20;;;;;;5010052;28;20521;-83
2023/09/09 09:04:38;;;;;;;28.80;23.88;;;25.20;78.20;;;;;;5006970;28;20046;-84
2023/09/09 09:07:05;;;;;;;32.03;25.55;;;25.20;78.10;;;;;;5004956;28;20014;-83
2023/09/09 09:09:31;;;;;;;29.23;23.95;;;25.30;77.90;;;;;;5008176;28;20018;-83
2023/09/09 09:12:00;;;;;;;33.10;26.33;;;25.30;77.70;;;;;;5008531;28;20029;-84
2023/09/09 09:14:26;;;;;;;32.28;27.85;;;25.40;77.50;;;;;;5010119;28;20507;-83
2023/09/09 09:16:54;;;;;;;34.35;27.58;;;25.50;77.40;;;;;;5009480;28;20085;-84
2023/09/09 09:19:30;;;;;;;34.22;28.23;;;25.50;77.40;;;;;;5013376;28;20371;-84
2023/09/09 09:21:58;;;;;;;25.58;21.27;;;25.60;77.20;;;;;;5009133;28;20121;-83
2023/09/09 09:24:28;;;;;;;27.83;22.90;;;25.70;77.10;;;;;;5009922;28;20135;-84
2023/09/09 09:26:55;;;;;;;33.88;24.40;;;25.70;76.80;;;;;;5011061;28;20414;-84
2023/09/09 09:29:21;;;;;;;36.67;29.95;;;25.70;76.70;;;;;;5016709;28;20026;-83
2023/09/09 09:31:54;;;;;;;31.70;25.17;;;25.70;76.60;;;;;;5013072;28;20077;-83
2023/09/09 09:34:20;;;;;;;27.20;22.45;;;25.70;76.80;;;;;;5017690;28;20125;-83
2023/09/09 09:36:46;;;;;;;25.75;21.90;;;25.80;76.60;;;;;;5009055;28;20029;-86
2023/09/09 09:39:12;;;;;;;27.48;22.95;;;25.90;76.30;;;;;;4992528;28;20034;-84
2023/09/09 09:41:45;;;;;;;25.85;20.42;;;26.00;75.70;;;;;;5011949;28;20032;-84
2023/09/09 09:44:19;;;;;;;26.88;21.13;;;26.10;75.60;;;;;;5010161;28;20508;-84
2023/09/09 09:47:08;;;;;;;21.95;18.30;;;26.20;75.60;;;;;;5009711;28;20026;-84
2023/09/09 09:49:48;;;;;;;19.83;17.38;;;26.40;75.50;;;;;;5010991;28;20045;-84
2023/09/09 09:52:23;;;;;;;17.83;14.20;;;26.50;75.00;;;;;;5012715;28;20045;-83
2023/09/09 09:54:53;;;;;;;20.75;16.83;;;26.50;74.40;;;;;;5010180;28;20481;-83
2023/09/09 09:57:20;;;;;;;17.20;14.98;;;26.60;73.90;;;;;;5009852;28;20026;-84
2023/09/09 09:59:46;;;;;;;18.27;15.43;;;26.70;73.60;;;;;;5008792;28;20026;-84
2023/09/09 10:02:14;;;;;;;17.58;15.40;;;26.70;73.50;;;;;;5010748;28;20091;-84
2023/09/09 10:04:42;;;;;;;17.02;14.80;;;26.80;73.20;;;;;;5009431;28;20022;-84
2023/09/09 10:07:16;;;;;;;17.40;15.13;;;26.90;72.90;;;;;;5006783;28;20090;-84
2023/09/09 10:10:09;;;;;;;17.38;14.38;;;26.90;72.40;;;;;;5010168;28;20140;-84
2023/09/09 10:12:47;;;;;;;14.63;13.13;;;27.00;71.80;;;;;;5025723;28;20030;-84
2023/09/09 10:15:15;;;;;;;15.57;13.93;;;27.10;71.50;;;;;;5015005;28;20034;-84
2023/09/09 10:17:42;;;;;;;16.15;13.40;;;27.10;71.10;;;;;;5015824;28;20140;-84
2023/09/09 10:20:11;;;;;;;10.70;9.57;;;27.10;70.80;;;;;;5016018;28;20053;-84
2023/09/09 10:22:37;;;;;;;16.60;13.73;;;27.20;70.70;;;;;;5015143;28;20036;-84
2023/09/09 10:25:05;;;;;;;14.57;13.07;;;27.30;70.40;;;;;;5015140;28;20125;-84
2023/09/09 10:27:33;;;;;;;16.52;13.30;;;27.40;70.20;;;;;;5012863;28;20032;-84
2023/09/09 10:30:00;;;;;;;15.15;13.50;;;27.50;69.90;;;;;;5014468;28;20061;-84
2023/09/09 10:32:26;;;;;;;14.07;12.60;;;27.50;69.70;;;;;;5010523;28;20473;-84
2023/09/09 10:34:53;;;;;;;12.40;11.10;;;27.60;69.50;;;;;;5013072;28;20050;-84
2023/09/09 10:37:20;;;;;;;13.68;11.50;;;27.60;69.00;;;;;;5010812;28;20045;-84
2023/09/09 10:39:48;;;;;;;12.73;10.82;;;27.60;68.30;;;;;;5011096;28;20037;-83
2023/09/09 10:42:15;;;;;;;13.40;11.00;;;27.60;67.80;;;;;;5008336;28;20379;-84
2023/09/09 10:44:42;;;;;;;13.35;11.30;;;27.70;67.60;;;;;;5009634;28;20034;-83
2023/09/09 10:47:08;;;;;;;11.20;9.93;;;27.70;67.00;;;;;;5010135;28;20394;-84
2023/09/09 10:49:34;;;;;;;11.23;9.88;;;27.80;67.20;;;;;;5008073;28;20022;-84
2023/09/09 10:51:59;;;;;;;12.10;9.93;;;27.90;67.10;;;;;;5010142;28;20104;-84
2023/09/09 10:54:26;;;;;;;9.50;8.50;;;27.90;66.40;;;;;;5013104;28;20076;-83
2023/09/09 10:57:02;;;;;;;8.13;7.18;;;28.10;66.50;;;;;;5010685;28;20030;-84
2023/09/09 10:59:29;;;;;;;8.18;7.32;;;28.20;66.30;;;;;;5009379;28;20033;-84
2023/09/09 11:02:22;;;;;;;8.77;7.90;;;28.30;66.00;;;;;;5007104;28;20632;-84
2023/09/09 11:05:01;;;;;;;11.38;10.18;;;28.40;65.30;;;;;;5012021;28;20034;-84
2023/09/09 11:07:44;;;;;;;8.73;7.70;;;28.40;65.00;;;;;;5011433;28;20022;-84
2023/09/09 11:10:15;;;;;;;9.85;7.22;;;28.50;64.60;;;;;;5011124;28;20026;-84
2023/09/09 11:12:50;;;;;;;6.95;6.25;;;28.60;64.50;;;;;;5016143;28;20381;-84
2023/09/09 11:15:15;;;;;;;6.10;5.50;;;28.60;63.90;;;;;;5011967;28;20056;-84
2023/09/09 11:17:45;;;;;;;6.65;5.45;;;28.70;63.50;;;;;;5013241;28;20038;-84
2023/09/09 11:20:12;;;;;;;6.78;5.95;;;28.70;63.20;;;;;;5012296;28;20063;-84
2023/09/09 11:22:39;;;;;;;7.97;7.03;;;28.80;62.70;;;;;;5009112;28;20029;-84
2023/09/09 11:25:06;;;;;;;8.73;7.50;;;28.90;62.20;;;;;;5013232;28;20086;-84
2023/09/09 11:27:36;;;;;;;9.95;6.97;;;28.90;61.90;;;;;;5013110;28;20026;-83
2023/09/09 11:30:04;;;;;;;7.03;6.32;;;29.00;61.90;;;;;;5013339;28;20042;-83
2023/09/09 11:32:39;;;;;;;7.40;6.70;;;29.10;61.80;;;;;;5013129;28;20014;-83
2023/09/09 11:35:11;;;;;;;6.38;5.78;;;29.20;61.30;;;;;;5020149;28;20088;-84
2023/09/09 11:37:37;;;;;;;6.95;5.93;;;29.40;61.30;;;;;;5010646;28;20508;-84
2023/09/09 11:40:03;;;;;;;6.88;5.28;;;29.60;61.20;;;;;;5015087;28;20029;-84
2023/09/09 11:42:29;;;;;;;6.43;5.40;;;29.70;60.90;;;;;;5011213;28;20030;-83
2023/09/09 11:44:55;;;;;;;5.20;4.70;;;29.80;60.10;;;;;;5016048;28;20041;-84
2023/09/09 11:47:21;;;;;;;5.43;4.90;;;29.90;59.70;;;;;;5014291;28;20073;-84
2023/09/09 11:49:48;;;;;;;6.13;4.47;;;30.00;59.30;;;;;;5010024;28;20028;-83
2023/09/09 11:52:16;;;;;;;4.53;3.97;;;29.90;58.20;;;;;;5011080;28;20109;-84
2023/09/09 11:54:44;;;;;;;4.03;3.60;;;30.00;57.30;;;;;;5014547;28;20030;-84
2023/09/09 11:57:12;;;;;;;4.82;4.18;;;30.00;56.80;;;;;;5013334;28;20057;-84
2023/09/09 11:59:50;;;;;;;5.55;3.70;;;30.10;55.40;;;;;;5014303;28;20083;-83
2023/09/09 12:02:25;;;;;;;4.00;3.60;;;30.10;55.00;;;;;;5019245;28;20029;-84
2023/09/09 12:04:59;;;;;;;5.07;3.50;;;30.20;54.80;;;;;;5016259;28;20025;-84
2023/09/09 12:07:31;;;;;;;3.40;3.10;;;30.20;53.60;;;;;;5010569;28;20053;-84
2023/09/09 12:09:59;;;;;;;4.30;3.50;;;30.30;52.80;;;;;;5011648;28;20109;-84
2023/09/09 12:12:25;;;;;;;4.50;3.72;;;30.40;52.10;;;;;;5018380;28;20060;-83
2023/09/09 12:14:53;;;;;;;4.22;3.60;;;30.50;51.60;;;;;;5015118;28;20013;-83
2023/09/09 12:17:19;;;;;;;3.83;3.40;;;30.60;51.10;;;;;;5014455;28;20022;-84
2023/09/09 12:19:58;;;;;;;3.88;3.47;;;30.70;51.20;;;;;;5016635;28;20579;-84
2023/09/09 12:22:35;;;;;;;5.70;3.45;;;30.80;50.40;;;;;;5018241;28;20018;-84
2023/09/09 12:25:05;;;;;;;4.90;3.60;;;30.90;50.60;;;;;;5012323;28;20037;-83
2023/09/09 12:27:44;;;;;;;4.57;3.58;;;30.90;49.80;;;;;;5016108;28;20124;-84
2023/09/09 12:30:37;;;;;;;4.03;3.38;;;31.00;49.00;;;;;;5013372;28;20030;-84
2023/09/09 12:33:04;;;;;;;3.72;3.30;;;31.10;48.80;;;;;;5011897;28;21163;-84
2023/09/09 12:35:34;;;;;;;3.80;3.45;;;31.20;48.30;;;;;;5016623;28;20029;-83
2023/09/09 12:38:00;;;;;;;3.85;3.40;;;31.30;48.00;;;;;;5013078;28;20025;-84